Hodonin, Czech Republic
Current Conditions -  °F | °C
As of 8:30 PM on Saturday 25 Oct 2014 (Local Time) from LKTB Reporting Station
Drizzle Drizzle  
Wind Chill: 42°   Ceiling: 1600
Heat Index: 45°   Visibility: 4mi
Dew Point: 41°   Wind: 5mph
Humidity: 87%   Direction: 120°ESE
Pressure: 30.27"   Gusts: NA
Location:  48.86°N, 17.12°E
Report Text: LKTB 251830Z 12004KT 6000 -DZ FEW011 OVC016 07/05 Q1025 NOSIG
Loading
Personal Weather Stations






























Interactive Weather Map
Tropical Storm Tracking
New forecast layout! Learn more

10-Day Weather Forecast

Advertisements
Track Severe Weather on mobile